Constitution — VY9477 — position and weather

sailwx.info

Track history (hours):
 
Tides and Currents Weather Stations Pressure Air Temp Water Temp Dewpoint Dewpoint Depression Visibility Wind Speed Wind Dir Waves Ship Positions

Constitution

Last reported at 2018-Jul-22 08:30 UTC. Time now 2018-Jul-22 08:41 UTC.
Position N 49°18' W 123°08'.

Length 24 m; draft 2 m.

Type: Passenger vessel. MMSI: 316021988.

Date/timePositionNaut miles runAvg speedWind from/ knotsBaromVisibWave heightAir tempDewpointWater temp
2018-Jul-22 08:30N 49°18' W 123°08'0 0.0
2018-Jul-22 08:00N 49°18' W 123°08'0 0.0
2018-Jul-22 07:30N 49°18' W 123°08'0 0.0
2018-Jul-22 07:00N 49°18' W 123°08'0 0.0
2018-Jul-22 06:30N 49°18' W 123°08'0 0.0
2018-Jul-22 06:00N 49°18' W 123°08'0 0.0
2018-Jul-22 05:30N 49°18' W 123°08'0 0.0
2018-Jul-22 05:00N 49°18' W 123°08'0 0.0
2018-Jul-22 04:30N 49°18' W 123°08'0 0.0
2018-Jul-22 04:00N 49°18' W 123°08'0 0.0
2018-Jul-22 03:30N 49°18' W 123°08'0 0.0
2018-Jul-22 03:00N 49°18' W 123°08'0 0.0
2018-Jul-22 02:28N 49°18' W 123°08'0 0.0
2018-Jul-22 02:00N 49°18' W 123°08'0 0.0
2018-Jul-22 01:30N 49°18' W 123°08'0 0.0
2018-Jul-22 00:59N 49°18' W 123°08'0 0.0
2018-Jul-22 00:27N 49°18' W 123°08'0 0.0
2018-Jul-22 00:00N 49°18' W 123°08'0 0.0
2018-Jul-21 23:25N 49°18' W 123°08'0 0.4
2018-Jul-21 22:50N 49°18' W 123°08'2 5.1
2018-Jul-21 22:30N 49°19' W 123°06'2 3.2
2018-Jul-21 21:59N 49°18' W 123°08'0 0.9
2018-Jul-21 21:30N 49°18' W 123°07'1 2.4
2018-Jul-21 21:00N 49°18' W 123°05'1 1.9
2018-Jul-21 20:17N 49°18' W 123°07'2 5.6
2018-Jul-21 20:00N 49°19' W 123°06'2 3.3
2018-Jul-21 19:29N 49°18' W 123°08'0 0.7
2018-Jul-21 19:00N 49°18' W 123°07'2 3.0
2018-Jul-21 18:30N 49°18' W 123°05'2 1.4
2018-Jul-21 17:03N 49°18' W 123°08'0 0.0
2018-Jul-21 16:53N 49°18' W 123°08'0 0.0
2018-Jul-21 16:30N 49°18' W 123°08'0 0.0
2018-Jul-21 15:59N 49°18' W 123°08'0 0.0
2018-Jul-21 14:14N 49°18' W 123°08'0 0.0
2018-Jul-21 13:15N 49°18' W 123°08'0 0.0
2018-Jul-21 12:58N 49°18' W 123°08'0 0.0
2018-Jul-21 11:27N 49°18' W 123°08'0 0.0
2018-Jul-21 10:53N 49°18' W 123°08'0 0.0
2018-Jul-21 10:17N 49°18' W 123°08'0 0.0
2018-Jul-21 09:59N 49°18' W 123°08'0 0.0
2018-Jul-21 08:30N 49°18' W 123°08'0 0.0
2018-Jul-21 07:45N 49°18' W 123°08'0 0.0
2018-Jul-21 07:29N 49°18' W 123°08'0 0.0
2018-Jul-21 06:53N 49°18' W 123°08'0 0.0
2018-Jul-21 06:02N 49°18' W 123°08'0 0.0
2018-Jul-21 05:55N 49°18' W 123°08'0 0.0
2018-Jul-21 05:29N 49°18' W 123°08'0 0.0
2018-Jul-21 04:58N 49°18' W 123°08'0 0.0
2018-Jul-21 04:30N 49°18' W 123°08'1 1.5
2018-Jul-21 04:00N 49°18' W 123°07'2 3.2
2018-Jul-21 03:29N 49°17' W 123°09'0 0.6
2018-Jul-21 02:59N 49°18' W 123°10'1 3.1
2018-Jul-21 02:30N 49°18' W 123°08'1 0.5
2018-Jul-21 00:58N 49°18' W 123°08'0 0.0
2018-Jul-21 00:29N 49°18' W 123°08'0 0.0
2018-Jul-21 00:00N 49°18' W 123°08'0 0.0
2018-Jul-20 23:30N 49°18' W 123°08'0 0.0
2018-Jul-20 23:00N 49°18' W 123°08'2 3.6
2018-Jul-20 22:30N 49°19' W 123°06'2 3.4
2018-Jul-20 22:00N 49°18' W 123°08'0 0.7
2018-Jul-20 21:30N 49°18' W 123°07'1 2.4
2018-Jul-20 21:00N 49°18' W 123°05'2 3.4
2018-Jul-20 20:30N 49°18' W 123°08'2 3.1
2018-Jul-20 20:00N 49°19' W 123°06'1 2.5
2018-Jul-20 19:30N 49°17' W 123°07'1 1.2
2018-Jul-20 18:59N 49°18' W 123°08'2 4.0
2018-Jul-20 18:30N 49°18' W 123°05'2 4.1
2018-Jul-20 18:00N 49°18' W 123°08'0 0.0
2018-Jul-20 17:30N 49°18' W 123°08'0 0.0
2018-Jul-20 17:00N 49°18' W 123°08'0 0.0
2018-Jul-20 16:30N 49°18' W 123°08'0 0.0
2018-Jul-20 16:00N 49°18' W 123°08'0 0.0
2018-Jul-20 15:30N 49°18' W 123°08'0 0.0
2018-Jul-20 15:00N 49°18' W 123°08'0 0.0
2018-Jul-20 14:30N 49°18' W 123°08'0 0.0
2018-Jul-20 14:00N 49°18' W 123°08'0 0.0
2018-Jul-20 13:30N 49°18' W 123°08'0 0.0
2018-Jul-20 13:00N 49°18' W 123°08'0 0.0
2018-Jul-20 12:30N 49°18' W 123°08'0 0.0
2018-Jul-20 12:00N 49°18' W 123°08'0 0.0
2018-Jul-20 11:30N 49°18' W 123°08'0 0.0
2018-Jul-20 11:00N 49°18' W 123°08'0 0.0
2018-Jul-20 10:30N 49°18' W 123°08'0 0.0
2018-Jul-20 10:00N 49°18' W 123°08'0 0.0
2018-Jul-20 09:30N 49°18' W 123°08'0 0.0
2018-Jul-20 09:00N 49°18' W 123°08'0 0.0
2018-Jul-20 08:30N 49°18' W 123°08'0 0.0
2018-Jul-20 08:00N 49°18' W 123°08'0 0.0
2018-Jul-20 07:30N 49°18' W 123°08'0 0.0
2018-Jul-20 07:00N 49°18' W 123°08'0 0.0
2018-Jul-20 06:30N 49°18' W 123°08'0 0.0
2018-Jul-20 06:00N 49°18' W 123°08'0 0.0
2018-Jul-20 05:30N 49°18' W 123°08'2 3.0
2018-Jul-20 05:00N 49°17' W 123°06'3 5.7
2018-Jul-20 04:30N 49°19' W 123°10'3 5.3
2018-Jul-20 04:00N 49°16' W 123°08'1 1.5
2018-Jul-20 03:23N 49°17' W 123°09'2 4.8
2018-Jul-20 02:59N 49°19' W 123°09'2 3.9
2018-Jul-20 02:30N 49°18' W 123°07'0 0.9
2018-Jul-20 02:00N 49°18' W 123°08'0 0.0
2018-Jul-20 01:30N 49°18' W 123°08'0 0.0
2018-Jul-20 01:00N 49°18' W 123°08'0 0.0
2018-Jul-20 00:30N 49°18' W 123°08'0 0.0
2018-Jul-19 23:59N 49°18' W 123°08'0 0.0
2018-Jul-19 23:30N 49°18' W 123°08'0 0.0
2018-Jul-19 23:00N 49°18' W 123°08'2 3.0
2018-Jul-19 22:30N 49°19' W 123°06'1 2.5
2018-Jul-19 22:00N 49°18' W 123°07'0 0.4
2018-Jul-19 21:28N 49°18' W 123°07'2 3.9
2018-Jul-19 21:00N 49°18' W 123°05'2 4.0
2018-Jul-19 20:28N 49°18' W 123°08'1 2.5
2018-Jul-19 20:00N 49°18' W 123°07'1 1.9
2018-Jul-19 19:30N 49°17' W 123°06'1 1.3
2018-Jul-19 19:00N 49°18' W 123°07'2 3.1
2018-Jul-19 18:30N 49°18' W 123°05'2 3.8
2018-Jul-19 18:00N 49°18' W 123°08'0 0.0
2018-Jul-19 17:30N 49°18' W 123°08'0 0.0
2018-Jul-19 17:00N 49°18' W 123°08'0 0.0
2018-Jul-19 16:30N 49°18' W 123°08'0 0.0
2018-Jul-19 16:00N 49°18' W 123°08'0 0.0
2018-Jul-19 15:29N 49°18' W 123°08'0 0.0
2018-Jul-19 15:00N 49°18' W 123°08'0 0.0
2018-Jul-19 14:00N 49°18' W 123°08'0 0.0
2018-Jul-19 13:30N 49°18' W 123°08'0 0.0
2018-Jul-19 13:00N 49°18' W 123°08'0 0.0
2018-Jul-19 12:30N 49°18' W 123°08'0 0.0
2018-Jul-19 12:00N 49°18' W 123°08'0 0.0
2018-Jul-19 11:30N 49°18' W 123°08'0 0.0
2018-Jul-19 11:00N 49°18' W 123°08'0 0.0
2018-Jul-19 10:30N 49°18' W 123°08'0 0.0
2018-Jul-19 10:00N 49°18' W 123°08'0 0.0
2018-Jul-19 09:30N 49°18' W 123°08'0 0.0
2018-Jul-19 09:00N 49°18' W 123°08'0 0.0
2018-Jul-19 08:29N 49°18' W 123°08'0 0.0
2018-Jul-19 08:00N 49°18' W 123°08'0 0.0
2018-Jul-19 07:30N 49°18' W 123°08'0 0.0
2018-Jul-19 07:00N 49°18' W 123°08'0 0.0
2018-Jul-19 06:29N 49°18' W 123°08'0 0.0
2018-Jul-19 06:00N 49°18' W 123°08'0 0.0
2018-Jul-19 05:30N 49°18' W 123°08'0 0.0
2018-Jul-19 05:00N 49°18' W 123°08'0 0.0
2018-Jul-19 04:30N 49°18' W 123°08'0 0.0
2018-Jul-19 04:00N 49°18' W 123°08'0 0.0
2018-Jul-19 03:30N 49°18' W 123°08'0 0.0
2018-Jul-19 03:00N 49°18' W 123°08'0 0.0
2018-Jul-19 02:30N 49°18' W 123°08'0 0.0
2018-Jul-19 02:00N 49°18' W 123°08'0 0.0
2018-Jul-19 01:30N 49°18' W 123°08'0 0.0
2018-Jul-19 01:00N 49°18' W 123°08'0 0.0
2018-Jul-19 00:29N 49°18' W 123°08'0 0.0
2018-Jul-19 00:00N 49°18' W 123°08'0 0.0
2018-Jul-18 23:29N 49°18' W 123°08'0 0.0
2018-Jul-18 23:00N 49°18' W 123°08'1 2.6
2018-Jul-18 22:30N 49°18' W 123°06'1 2.0
2018-Jul-18 22:00N 49°18' W 123°06'1 1.8
2018-Jul-18 21:28N 49°18' W 123°08'2 4.5
2018-Jul-18 21:00N 49°18' W 123°05'2 4.3
2018-Jul-18 20:30N 49°18' W 123°08'1 2.3
2018-Jul-18 20:00N 49°18' W 123°07'1 1.7
2018-Jul-18 19:30N 49°17' W 123°06'1 1.7
2018-Jul-18 18:58N 49°18' W 123°08'2 4.5
2018-Jul-18 18:30N 49°18' W 123°05'2 4.4
2018-Jul-18 18:00N 49°18' W 123°08'0 0.0
2018-Jul-18 17:27N 49°18' W 123°08'0 0.0
2018-Jul-18 17:00N 49°18' W 123°08'0 0.0
2018-Jul-18 16:25N 49°18' W 123°08'0 0.0
2018-Jul-18 15:57N 49°18' W 123°08'0 0.0
2018-Jul-18 15:29N 49°18' W 123°08'0 0.0
2018-Jul-18 15:00N 49°18' W 123°08'0 0.0
2018-Jul-18 14:27N 49°18' W 123°08'0 0.0
2018-Jul-18 13:30N 49°18' W 123°08'0 0.0
2018-Jul-18 13:00N 49°18' W 123°08'0 0.0
2018-Jul-18 12:30N 49°18' W 123°08'0 0.0
2018-Jul-18 11:59N 49°18' W 123°08'0 0.0
2018-Jul-18 11:30N 49°18' W 123°08'0 0.0
2018-Jul-18 10:30N 49°18' W 123°08'0 0.0
2018-Jul-18 09:59N 49°18' W 123°08'0 0.0
2018-Jul-18 09:30N 49°18' W 123°08'0 0.0
2018-Jul-18 09:00N 49°18' W 123°08'0 0.0
2018-Jul-18 08:30N 49°18' W 123°08'0 0.0
2018-Jul-18 08:00N 49°18' W 123°08'0 0.0
2018-Jul-18 07:30N 49°18' W 123°08'0 0.0
2018-Jul-18 06:58N 49°18' W 123°08'0 0.0
2018-Jul-18 06:30N 49°18' W 123°08'0 0.0
2018-Jul-18 06:00N 49°18' W 123°08'0 0.0
2018-Jul-18 05:29N 49°18' W 123°08'0 0.0
2018-Jul-18 04:59N 49°18' W 123°08'0 0.0
2018-Jul-18 04:30N 49°18' W 123°08'0 0.0
2018-Jul-18 03:57N 49°18' W 123°08'0 0.0
2018-Jul-18 03:26N 49°18' W 123°08'0 0.0
2018-Jul-18 03:00N 49°18' W 123°08'0 0.0
2018-Jul-18 02:27N 49°18' W 123°08'0 0.0
2018-Jul-18 02:00N 49°18' W 123°08'0 0.0
2018-Jul-18 01:24N 49°18' W 123°08'0 0.0
2018-Jul-18 00:58N 49°18' W 123°08'0 0.0
2018-Jul-18 00:19N 49°18' W 123°08'0 0.0
2018-Jul-17 23:57N 49°18' W 123°08'0 0.0
2018-Jul-17 23:30N 49°18' W 123°08'0 0.0
2018-Jul-17 23:00N 49°18' W 123°08'2 3.4
2018-Jul-17 22:29N 49°19' W 123°06'2 3.2
2018-Jul-17 22:00N 49°17' W 123°07'0 0.3
2018-Jul-17 21:28N 49°18' W 123°07'1 3.0
2018-Jul-17 20:59N 49°18' W 123°05'2 3.9
2018-Jul-17 20:30N 49°18' W 123°08'2 3.2
2018-Jul-17 19:59N 49°19' W 123°06'1 2.7
2018-Jul-17 19:30N 49°17' W 123°07'1 1.0
2018-Jul-17 19:00N 49°18' W 123°08'2 3.5
2018-Jul-17 18:29N 49°18' W 123°05'2 4.2
2018-Jul-17 18:00N 49°18' W 123°08'0 0.0
2018-Jul-17 17:30N 49°18' W 123°08'0 0.0
2018-Jul-17 17:00N 49°18' W 123°08'0 0.0
2018-Jul-17 16:30N 49°18' W 123°08'0 0.0
2018-Jul-17 15:59N 49°18' W 123°08'0 0.0
2018-Jul-17 15:30N 49°18' W 123°08'0 0.0
2018-Jul-17 14:56N 49°18' W 123°08'0 0.0
2018-Jul-17 14:30N 49°18' W 123°08'0 0.0
2018-Jul-17 14:00N 49°18' W 123°08'0 0.0
2018-Jul-17 13:30N 49°18' W 123°08'0 0.0
2018-Jul-17 13:00N 49°18' W 123°08'0 0.0
2018-Jul-17 12:30N 49°18' W 123°08'0 0.0
2018-Jul-17 12:00N 49°18' W 123°08'0 0.0
2018-Jul-17 11:30N 49°18' W 123°08'0 0.0
2018-Jul-17 11:00N 49°18' W 123°08'0 0.0
2018-Jul-17 10:28N 49°18' W 123°08'0 0.0
2018-Jul-17 10:00N 49°18' W 123°08'0 0.0
2018-Jul-17 09:30N 49°18' W 123°08'0 0.0
2018-Jul-17 09:00N 49°18' W 123°08'0 0.0
2018-Jul-17 08:30N 49°18' W 123°08'0 0.0
2018-Jul-17 08:00N 49°18' W 123°08'0 0.0
2018-Jul-17 07:29N 49°18' W 123°08'0 0.0
2018-Jul-17 07:00N 49°18' W 123°08'0 0.0
2018-Jul-17 06:29N 49°18' W 123°08'0 0.0
2018-Jul-17 05:57N 49°18' W 123°08'0 0.0
2018-Jul-17 05:30N 49°18' W 123°08'0 0.0
2018-Jul-17 05:00N 49°18' W 123°08'0 0.7
2018-Jul-17 04:29N 49°18' W 123°08'0 0.8
2018-Jul-17 04:00N 49°18' W 123°07'1 1.7
2018-Jul-17 03:08N 49°17' W 123°08'1 5.2
2018-Jul-17 03:00N 49°16' W 123°07'2 3.4
2018-Jul-17 02:29N 49°17' W 123°09'1 2.9
2018-Jul-17 02:00N 49°19' W 123°08'1 1.7
2018-Jul-17 01:29N 49°18' W 123°08'0 0.0
2018-Jul-17 00:59N 49°18' W 123°08'0 0.0
2018-Jul-17 00:30N 49°18' W 123°08'0 0.0
2018-Jul-16 23:26N 49°18' W 123°08'0 0.0
2018-Jul-16 23:00N 49°18' W 123°08'2 3.3
2018-Jul-16 22:30N 49°19' W 123°06'1 2.7
2018-Jul-16 22:00N 49°17' W 123°07'0 0.4
2018-Jul-16 21:30N 49°18' W 123°07'1 2.8
2018-Jul-16 21:00N 49°18' W 123°05'2 3.8
2018-Jul-16 20:30N 49°18' W 123°08'2 3.6
2018-Jul-16 20:00N 49°19' W 123°06'1 2.8
2018-Jul-16 19:30N 49°17' W 123°07'0 0.5
2018-Jul-16 18:58N 49°18' W 123°07'2 3.7
2018-Jul-16 18:30N 49°18' W 123°05'2 4.2
2018-Jul-16 18:00N 49°18' W 123°08'0 0.0
2018-Jul-16 17:30N 49°18' W 123°08'0 0.0
2018-Jul-16 17:00N 49°18' W 123°08'0 0.0
2018-Jul-16 16:30N 49°18' W 123°08'0 0.0
2018-Jul-16 16:00N 49°18' W 123°08'0 0.0
2018-Jul-16 15:29N 49°18' W 123°08'0 0.0
2018-Jul-16 15:00N 49°18' W 123°08'0 0.0
2018-Jul-16 14:30N 49°18' W 123°08'0 0.0
2018-Jul-16 14:00N 49°18' W 123°08'0 0.0
2018-Jul-16 13:30N 49°18' W 123°08'0 0.0
2018-Jul-16 13:00N 49°18' W 123°08'0 0.0
2018-Jul-16 12:30N 49°18' W 123°08'0 0.0
2018-Jul-16 11:59N 49°18' W 123°08'0 0.0
2018-Jul-16 11:29N 49°18' W 123°08'0 0.0
2018-Jul-16 11:00N 49°18' W 123°08'0 0.0
2018-Jul-16 10:31N 49°18' W 123°08'0 0.0
2018-Jul-16 10:00N 49°18' W 123°08'0 0.0
2018-Jul-16 09:30N 49°18' W 123°08'0 0.0
2018-Jul-16 09:00N 49°18' W 123°08'0 0.0
2018-Jul-16 08:30N 49°18' W 123°08'0 0.0
2018-Jul-16 07:58N 49°18' W 123°08'0 0.0
2018-Jul-16 07:30N 49°18' W 123°08'0 0.0
2018-Jul-16 07:00N 49°18' W 123°08'0 0.0
2018-Jul-16 06:30N 49°18' W 123°08'0 0.0
2018-Jul-16 05:59N 49°18' W 123°08'0 0.0
2018-Jul-16 05:30N 49°18' W 123°08'0 0.0
2018-Jul-16 05:00N 49°18' W 123°08'0 0.0
2018-Jul-16 04:30N 49°18' W 123°08'0 0.0
2018-Jul-16 04:00N 49°18' W 123°08'0 0.1
2018-Jul-16 03:26N 49°18' W 123°08'0 0.2
2018-Jul-16 03:00N 49°18' W 123°08'0 0.0
2018-Jul-16 02:30N 49°18' W 123°08'0 0.0
2018-Jul-16 02:00N 49°18' W 123°08'0 0.4
2018-Jul-16 01:27N 49°18' W 123°08'0 0.9
2018-Jul-16 01:00N 49°18' W 123°07'0 0.8
2018-Jul-16 00:28N 49°18' W 123°08'0 0.3
2018-Jul-15 23:57N 49°18' W 123°08'0 0.0
2018-Jul-15 23:28N 49°18' W 123°08'0 0.0
2018-Jul-15 22:59N 49°18' W 123°08'2 3.3
2018-Jul-15 22:30N 49°19' W 123°06'1 2.5
2018-Jul-15 22:00N 49°17' W 123°07'0 0.8
2018-Jul-15 21:30N 49°18' W 123°07'2 3.3
2018-Jul-15 21:00N 49°18' W 123°05'2 3.9
2018-Jul-15 20:30N 49°18' W 123°08'1 2.4
2018-Jul-15 20:00N 49°18' W 123°06'1 1.7
2018-Jul-15 19:30N 49°17' W 123°06'1 1.3
2018-Jul-15 18:58N 49°18' W 123°07'2 4.1
2018-Jul-15 18:30N 49°18' W 123°05'2 4.4
2018-Jul-15 18:00N 49°18' W 123°08'0 0.0
2018-Jul-15 17:30N 49°18' W 123°08'0 0.0
2018-Jul-15 17:00N 49°18' W 123°08'0 0.0
2018-Jul-15 16:30N 49°18' W 123°08'0 0.0
2018-Jul-15 16:00N 49°18' W 123°08'0 0.0
2018-Jul-15 15:30N 49°18' W 123°08'0 0.0
2018-Jul-15 15:00N 49°18' W 123°08'0 0.0
2018-Jul-15 14:30N 49°18' W 123°08'0 0.0
2018-Jul-15 14:00N 49°18' W 123°08'0 0.0
2018-Jul-15 13:30N 49°18' W 123°08'0 0.0
2018-Jul-15 13:00N 49°18' W 123°08'0 0.0
2018-Jul-15 12:30N 49°18' W 123°08'0 0.0
2018-Jul-15 11:59N 49°18' W 123°08'0 0.0
2018-Jul-15 11:30N 49°18' W 123°08'0 0.0
2018-Jul-15 11:00N 49°18' W 123°08'0 0.0
2018-Jul-15 10:30N 49°18' W 123°08'0 0.0
2018-Jul-15 09:59N 49°18' W 123°08'0 0.0
2018-Jul-15 09:30N 49°18' W 123°08'0 0.0
2018-Jul-15 09:00N 49°18' W 123°08'0 0.0
2018-Jul-15 08:30N 49°18' W 123°08'0 0.0
2018-Jul-15 08:00N 49°18' W 123°08'0 0.0
2018-Jul-15 07:30N 49°18' W 123°08'0 0.0
2018-Jul-15 06:59N 49°18' W 123°08'0 0.0
2018-Jul-15 06:29N 49°18' W 123°08'0 0.0
2018-Jul-15 06:00N 49°18' W 123°08'0 0.0
2018-Jul-15 05:30N 49°18' W 123°08'0 0.0
2018-Jul-15 04:59N 49°18' W 123°08'0 0.0
2018-Jul-15 04:30N 49°18' W 123°08'1 1.3
2018-Jul-15 04:00N 49°18' W 123°07'1 2.7
2018-Jul-15 03:30N 49°17' W 123°05'1 2.1
2018-Jul-15 03:00N 49°18' W 123°05'2 4.5
2018-Jul-15 02:30N 49°19' W 123°08'1 2.2
2018-Jul-15 02:00N 49°18' W 123°08'0 0.0
2018-Jul-15 01:30N 49°18' W 123°08'0 0.0
2018-Jul-15 00:59N 49°18' W 123°08'0 0.0
2018-Jul-15 00:29N 49°18' W 123°08'0 0.0
2018-Jul-15 00:00N 49°18' W 123°08'0 0.0
2018-Jul-14 23:29N 49°18' W 123°08'0 0.4
2018-Jul-14 22:57N 49°18' W 123°08'2 3.9
2018-Jul-14 22:30N 49°19' W 123°05'2 3.7
2018-Jul-14 22:00N 49°18' W 123°08'0 0.5
2018-Jul-14 21:30N 49°18' W 123°08'2 3.9
2018-Jul-14 21:00N 49°18' W 123°05'2 4.2
2018-Jul-14 20:30N 49°18' W 123°08'1 2.6
2018-Jul-14 20:00N 49°18' W 123°06'1 2.1
2018-Jul-14 19:30N 49°18' W 123°07'0 0.3
2018-Jul-14 19:00N 49°18' W 123°07'2 3.2
2018-Jul-14 18:30N 49°18' W 123°05'2 3.9
2018-Jul-14 18:00N 49°18' W 123°08'0 0.0
2018-Jul-14 17:30N 49°18' W 123°08'0 0.0
2018-Jul-14 17:00N 49°18' W 123°08'0 0.0
2018-Jul-14 16:30N 49°18' W 123°08'0 0.0
2018-Jul-14 16:00N 49°18' W 123°08'0 0.0
2018-Jul-14 15:30N 49°18' W 123°08'0 0.0
2018-Jul-14 15:00N 49°18' W 123°08'0 0.0
2018-Jul-14 14:00N 49°18' W 123°08'0 0.0
2018-Jul-14 13:29N 49°18' W 123°08'0 0.0
2018-Jul-14 13:00N 49°18' W 123°08'0 0.0
2018-Jul-14 12:30N 49°18' W 123°08'0 0.0
2018-Jul-14 12:00N 49°18' W 123°08'0 0.0
2018-Jul-14 11:30N 49°18' W 123°08'0 0.0
2018-Jul-14 11:00N 49°18' W 123°08'0 0.0
2018-Jul-14 10:30N 49°18' W 123°08'0 0.0
2018-Jul-14 10:00N 49°18' W 123°08'0 0.0
2018-Jul-14 09:30N 49°18' W 123°08'0 0.0
2018-Jul-14 09:00N 49°18' W 123°08'0 0.0
2018-Jul-14 08:30N 49°18' W 123°08'0 0.0
2018-Jul-14 08:00N 49°18' W 123°08'0 0.0
2018-Jul-14 07:30N 49°18' W 123°08'0 0.0
2018-Jul-14 07:00N 49°18' W 123°08'0 0.0
2018-Jul-14 06:30N 49°18' W 123°08'0 0.0
2018-Jul-14 06:00N 49°18' W 123°08'0 0.0
2018-Jul-14 05:30N 49°18' W 123°08'0 0.0
2018-Jul-14 05:00N 49°18' W 123°08'0 0.0
2018-Jul-14 04:30N 49°18' W 123°08'0 0.0
2018-Jul-14 03:59N 49°18' W 123°08'0 0.0
2018-Jul-14 03:30N 49°18' W 123°08'0 0.5
2018-Jul-14 03:00N 49°18' W 123°08'3 5.0
2018-Jul-14 02:30N 49°18' W 123°04'2 4.6
2018-Jul-14 02:00N 49°18' W 123°00'1 1.4
2018-Jul-14 01:30N 49°18' W 123°01'0 0.2
2018-Jul-14 01:00N 49°18' W 123°01'0 0.1
2018-Jul-14 00:30N 49°18' W 123°01'2 4.0
2018-Jul-13 23:59N 49°18' W 122°58'3 5.3
2018-Jul-13 23:29N 49°18' W 123°02'3 7.0
2018-Jul-13 23:00N 49°18' W 123°07'1 1.1
2018-Jul-13 22:30N 49°18' W 123°08'0 0.0
2018-Jul-13 22:00N 49°18' W 123°08'0 0.0
2018-Jul-13 21:30N 49°18' W 123°08'0 0.0
2018-Jul-13 21:00N 49°18' W 123°08'0 0.0
2018-Jul-13 20:30N 49°18' W 123°08'0 0.0
2018-Jul-13 20:00N 49°18' W 123°08'0 0.0
2018-Jul-13 19:30N 49°18' W 123°08'0 0.0
2018-Jul-13 19:00N 49°18' W 123°08'0 0.0
2018-Jul-13 18:30N 49°18' W 123°08'0 0.0
2018-Jul-13 17:59N 49°18' W 123°08'0 0.0
2018-Jul-13 17:30N 49°18' W 123°08'0 0.0
2018-Jul-13 17:00N 49°18' W 123°08'0 0.0
2018-Jul-13 16:30N 49°18' W 123°08'0 0.0
2018-Jul-13 16:00N 49°18' W 123°08'0 0.0
2018-Jul-13 15:30N 49°18' W 123°08'0 0.0
2018-Jul-13 15:00N 49°18' W 123°08'0 0.0
2018-Jul-13 14:00N 49°18' W 123°08'0 0.0
2018-Jul-13 13:30N 49°18' W 123°08'0 0.0
2018-Jul-13 13:00N 49°18' W 123°08'0 0.0
2018-Jul-13 12:30N 49°18' W 123°08'0 0.0
2018-Jul-13 12:00N 49°18' W 123°08'0 0.0
2018-Jul-13 11:30N 49°18' W 123°08'0 0.0
2018-Jul-13 11:00N 49°18' W 123°08'0 0.0
2018-Jul-13 10:30N 49°18' W 123°08'0 0.0
2018-Jul-13 09:59N 49°18' W 123°08'0 0.0
2018-Jul-13 09:30N 49°18' W 123°08'0 0.0
2018-Jul-13 09:00N 49°18' W 123°08'0 0.0
2018-Jul-13 08:30N 49°18' W 123°08'0 0.0
2018-Jul-13 08:00N 49°18' W 123°08'0 0.0
2018-Jul-13 07:30N 49°18' W 123°08'0 0.0
2018-Jul-13 07:00N 49°18' W 123°08'0 0.0
2018-Jul-13 06:30N 49°18' W 123°08'0 0.0
2018-Jul-13 06:00N 49°18' W 123°08'0 0.0
2018-Jul-13 05:30N 49°18' W 123°08'1 1.4
2018-Jul-13 05:00N 49°18' W 123°07'1 1.7
2018-Jul-13 04:30N 49°19' W 123°06'3 5.8
2018-Jul-13 04:00N 49°18' W 123°02'4 6.5
2018-Jul-13 03:27N 49°19' W 122°57'1 1.3
2018-Jul-13 03:00N 49°19' W 122°56'2 4.7
2018-Jul-13 02:29N 49°18' W 122°59'3 7.4
2018-Jul-13 02:00N 49°18' W 123°05'2 4.1
2018-Jul-13 01:30N 49°18' W 123°08'0 0.0
2018-Jul-13 01:00N 49°18' W 123°08'0 0.0
2018-Jul-13 00:30N 49°18' W 123°08'0 0.0
2018-Jul-12 23:57N 49°18' W 123°08'0 0.0
2018-Jul-12 23:30N 49°18' W 123°08'0 0.0
2018-Jul-12 22:58N 49°18' W 123°08'2 3.6
2018-Jul-12 22:30N 49°19' W 123°06'1 2.5
2018-Jul-12 22:00N 49°17' W 123°07'0 0.9
2018-Jul-12 21:30N 49°18' W 123°07'2 3.2
2018-Jul-12 21:00N 49°18' W 123°05'2 4.0
2018-Jul-12 20:30N 49°18' W 123°08'2 3.1
2018-Jul-12 20:00N 49°19' W 123°06'1 2.5
2018-Jul-12 19:30N 49°18' W 123°07'0 0.9
2018-Jul-12 19:00N 49°18' W 123°08'2 4.1
2018-Jul-12 18:30N 49°18' W 123°05'2 4.4
2018-Jul-12 18:00N 49°18' W 123°08'0 0.0
2018-Jul-12 17:29N 49°18' W 123°08'0 0.0
2018-Jul-12 17:00N 49°18' W 123°08'0 0.0
2018-Jul-12 16:30N 49°18' W 123°08'0 0.0
2018-Jul-12 16:00N 49°18' W 123°08'0 0.0
2018-Jul-12 15:30N 49°18' W 123°08'0 0.0
2018-Jul-12 15:00N 49°18' W 123°08'0 0.0
2018-Jul-12 14:30N 49°18' W 123°08'0 0.0
2018-Jul-12 14:00N 49°18' W 123°08'0 0.0
2018-Jul-12 13:30N 49°18' W 123°08'0 0.0
2018-Jul-12 13:00N 49°18' W 123°08'0 0.0
2018-Jul-12 12:30N 49°18' W 123°08'0 0.0
2018-Jul-12 12:00N 49°18' W 123°08'0 0.0
2018-Jul-12 11:29N 49°18' W 123°08'0 0.0
2018-Jul-12 11:00N 49°18' W 123°08'0 0.0
2018-Jul-12 10:30N 49°18' W 123°08'0 0.0
2018-Jul-12 10:00N 49°18' W 123°08'0 0.0
2018-Jul-12 09:30N 49°18' W 123°08'0 0.0
2018-Jul-12 09:00N 49°18' W 123°08'0 0.0
2018-Jul-12 08:30N 49°18' W 123°08'  
Track history (hours):
 
Tides and Currents Weather Stations Pressure Air Temp Water Temp Dewpoint Dewpoint Depression Visibility Wind Speed Wind Dir Waves Ship Positions

Constitution

Last reported at 2018-Jul-22 08:30 UTC. Time now 2018-Jul-22 08:41 UTC.
Position N 49°18' W 123°08'.

Length 24 m; draft 2 m.

Type: Passenger vessel. MMSI: 316021988.

Date/timePositionNaut miles runAvg speedWind from/ knotsBaromVisibWave heightAir tempDewpointWater temp
2018-Jul-22 08:30N 49°18' W 123°08'0 0.0
2018-Jul-22 08:00N 49°18' W 123°08'0 0.0
2018-Jul-22 07:30N 49°18' W 123°08'0 0.0
2018-Jul-22 07:00N 49°18' W 123°08'0 0.0
2018-Jul-22 06:30N 49°18' W 123°08'0 0.0
2018-Jul-22 06:00N 49°18' W 123°08'0 0.0
2018-Jul-22 05:30N 49°18' W 123°08'0 0.0
2018-Jul-22 05:00N 49°18' W 123°08'0 0.0
2018-Jul-22 04:30N 49°18' W 123°08'0 0.0
2018-Jul-22 04:00N 49°18' W 123°08'0 0.0
2018-Jul-22 03:30N 49°18' W 123°08'0 0.0
2018-Jul-22 03:00N 49°18' W 123°08'0 0.0
2018-Jul-22 02:28N 49°18' W 123°08'0 0.0
2018-Jul-22 02:00N 49°18' W 123°08'0 0.0
2018-Jul-22 01:30N 49°18' W 123°08'0 0.0
2018-Jul-22 00:59N 49°18' W 123°08'0 0.0
2018-Jul-22 00:27N 49°18' W 123°08'0 0.0
2018-Jul-22 00:00N 49°18' W 123°08'0 0.0
2018-Jul-21 23:25N 49°18' W 123°08'0 0.4
2018-Jul-21 22:50N 49°18' W 123°08'2 5.1
2018-Jul-21 22:30N 49°19' W 123°06'2 3.2
2018-Jul-21 21:59N 49°18' W 123°08'0 0.9
2018-Jul-21 21:30N 49°18' W 123°07'1 2.4
2018-Jul-21 21:00N 49°18' W 123°05'1 1.9
2018-Jul-21 20:17N 49°18' W 123°07'2 5.6
2018-Jul-21 20:00N 49°19' W 123°06'2 3.3
2018-Jul-21 19:29N 49°18' W 123°08'0 0.7
2018-Jul-21 19:00N 49°18' W 123°07'2 3.0
2018-Jul-21 18:30N 49°18' W 123°05'2 1.4
2018-Jul-21 17:03N 49°18' W 123°08'0 0.0
2018-Jul-21 16:53N 49°18' W 123°08'0 0.0
2018-Jul-21 16:30N 49°18' W 123°08'0 0.0
2018-Jul-21 15:59N 49°18' W 123°08'0 0.0
2018-Jul-21 14:14N 49°18' W 123°08'0 0.0
2018-Jul-21 13:15N 49°18' W 123°08'0 0.0
2018-Jul-21 12:58N 49°18' W 123°08'0 0.0
2018-Jul-21 11:27N 49°18' W 123°08'0 0.0
2018-Jul-21 10:53N 49°18' W 123°08'0 0.0
2018-Jul-21 10:17N 49°18' W 123°08'0 0.0
2018-Jul-21 09:59N 49°18' W 123°08'0 0.0
2018-Jul-21 08:30N 49°18' W 123°08'0 0.0
2018-Jul-21 07:45N 49°18' W 123°08'0 0.0
2018-Jul-21 07:29N 49°18' W 123°08'0 0.0
2018-Jul-21 06:53N 49°18' W 123°08'0 0.0
2018-Jul-21 06:02N 49°18' W 123°08'0 0.0
2018-Jul-21 05:55N 49°18' W 123°08'0 0.0
2018-Jul-21 05:29N 49°18' W 123°08'0 0.0
2018-Jul-21 04:58N 49°18' W 123°08'0 0.0
2018-Jul-21 04:30N 49°18' W 123°08'1 1.5
2018-Jul-21 04:00N 49°18' W 123°07'2 3.2
2018-Jul-21 03:29N 49°17' W 123°09'0 0.6
2018-Jul-21 02:59N 49°18' W 123°10'1 3.1
2018-Jul-21 02:30N 49°18' W 123°08'1 0.5
2018-Jul-21 00:58N 49°18' W 123°08'0 0.0
2018-Jul-21 00:29N 49°18' W 123°08'0 0.0
2018-Jul-21 00:00N 49°18' W 123°08'0 0.0
2018-Jul-20 23:30N 49°18' W 123°08'0 0.0
2018-Jul-20 23:00N 49°18' W 123°08'2 3.6
2018-Jul-20 22:30N 49°19' W 123°06'2 3.4
2018-Jul-20 22:00N 49°18' W 123°08'0 0.7
2018-Jul-20 21:30N 49°18' W 123°07'1 2.4
2018-Jul-20 21:00N 49°18' W 123°05'2 3.4
2018-Jul-20 20:30N 49°18' W 123°08'2 3.1
2018-Jul-20 20:00N 49°19' W 123°06'1 2.5
2018-Jul-20 19:30N 49°17' W 123°07'1 1.2
2018-Jul-20 18:59N 49°18' W 123°08'2 4.0
2018-Jul-20 18:30N 49°18' W 123°05'2 4.1
2018-Jul-20 18:00N 49°18' W 123°08'0 0.0
2018-Jul-20 17:30N 49°18' W 123°08'0 0.0
2018-Jul-20 17:00N 49°18' W 123°08'0 0.0
2018-Jul-20 16:30N 49°18' W 123°08'0 0.0
2018-Jul-20 16:00N 49°18' W 123°08'0 0.0
2018-Jul-20 15:30N 49°18' W 123°08'0 0.0
2018-Jul-20 15:00N 49°18' W 123°08'0 0.0
2018-Jul-20 14:30N 49°18' W 123°08'0 0.0
2018-Jul-20 14:00N 49°18' W 123°08'0 0.0
2018-Jul-20 13:30N 49°18' W 123°08'0 0.0
2018-Jul-20 13:00N 49°18' W 123°08'0 0.0
2018-Jul-20 12:30N 49°18' W 123°08'0 0.0
2018-Jul-20 12:00N 49°18' W 123°08'0 0.0
2018-Jul-20 11:30N 49°18' W 123°08'0 0.0
2018-Jul-20 11:00N 49°18' W 123°08'0 0.0
2018-Jul-20 10:30N 49°18' W 123°08'0 0.0
2018-Jul-20 10:00N 49°18' W 123°08'0 0.0
2018-Jul-20 09:30N 49°18' W 123°08'0 0.0
2018-Jul-20 09:00N 49°18' W 123°08'0 0.0
2018-Jul-20 08:30N 49°18' W 123°08'0 0.0
2018-Jul-20 08:00N 49°18' W 123°08'0 0.0
2018-Jul-20 07:30N 49°18' W 123°08'0 0.0
2018-Jul-20 07:00N 49°18' W 123°08'0 0.0
2018-Jul-20 06:30N 49°18' W 123°08'0 0.0
2018-Jul-20 06:00N 49°18' W 123°08'0 0.0
2018-Jul-20 05:30N 49°18' W 123°08'2 3.0
2018-Jul-20 05:00N 49°17' W 123°06'3 5.7
2018-Jul-20 04:30N 49°19' W 123°10'3 5.3
2018-Jul-20 04:00N 49°16' W 123°08'1 1.5
2018-Jul-20 03:23N 49°17' W 123°09'2 4.8
2018-Jul-20 02:59N 49°19' W 123°09'2 3.9
2018-Jul-20 02:30N 49°18' W 123°07'0 0.9
2018-Jul-20 02:00N 49°18' W 123°08'0 0.0
2018-Jul-20 01:30N 49°18' W 123°08'0 0.0
2018-Jul-20 01:00N 49°18' W 123°08'0 0.0
2018-Jul-20 00:30N 49°18' W 123°08'0 0.0
2018-Jul-19 23:59N 49°18' W 123°08'0 0.0
2018-Jul-19 23:30N 49°18' W 123°08'0 0.0
2018-Jul-19 23:00N 49°18' W 123°08'2 3.0
2018-Jul-19 22:30N 49°19' W 123°06'1 2.5
2018-Jul-19 22:00N 49°18' W 123°07'0 0.4
2018-Jul-19 21:28N 49°18' W 123°07'2 3.9
2018-Jul-19 21:00N 49°18' W 123°05'2 4.0
2018-Jul-19 20:28N 49°18' W 123°08'1 2.5
2018-Jul-19 20:00N 49°18' W 123°07'1 1.9
2018-Jul-19 19:30N 49°17' W 123°06'1 1.3
2018-Jul-19 19:00N 49°18' W 123°07'2 3.1
2018-Jul-19 18:30N 49°18' W 123°05'2 3.8
2018-Jul-19 18:00N 49°18' W 123°08'0 0.0
2018-Jul-19 17:30N 49°18' W 123°08'0 0.0
2018-Jul-19 17:00N 49°18' W 123°08'0 0.0
2018-Jul-19 16:30N 49°18' W 123°08'0 0.0
2018-Jul-19 16:00N 49°18' W 123°08'0 0.0
2018-Jul-19 15:29N 49°18' W 123°08'0 0.0
2018-Jul-19 15:00N 49°18' W 123°08'0 0.0
2018-Jul-19 14:00N 49°18' W 123°08'0 0.0
2018-Jul-19 13:30N 49°18' W 123°08'0 0.0
2018-Jul-19 13:00N 49°18' W 123°08'0 0.0
2018-Jul-19 12:30N 49°18' W 123°08'0 0.0
2018-Jul-19 12:00N 49°18' W 123°08'0 0.0
2018-Jul-19 11:30N 49°18' W 123°08'0 0.0
2018-Jul-19 11:00N 49°18' W 123°08'0 0.0
2018-Jul-19 10:30N 49°18' W 123°08'0 0.0
2018-Jul-19 10:00N 49°18' W 123°08'0 0.0
2018-Jul-19 09:30N 49°18' W 123°08'0 0.0
2018-Jul-19 09:00N 49°18' W 123°08'0 0.0
2018-Jul-19 08:29N 49°18' W 123°08'0 0.0
2018-Jul-19 08:00N 49°18' W 123°08'0 0.0
2018-Jul-19 07:30N 49°18' W 123°08'0 0.0
2018-Jul-19 07:00N 49°18' W 123°08'0 0.0
2018-Jul-19 06:29N 49°18' W 123°08'0 0.0
2018-Jul-19 06:00N 49°18' W 123°08'0 0.0
2018-Jul-19 05:30N 49°18' W 123°08'0 0.0
2018-Jul-19 05:00N 49°18' W 123°08'0 0.0
2018-Jul-19 04:30N 49°18' W 123°08'0 0.0
2018-Jul-19 04:00N 49°18' W 123°08'0 0.0
2018-Jul-19 03:30N 49°18' W 123°08'0 0.0
2018-Jul-19 03:00N 49°18' W 123°08'0 0.0
2018-Jul-19 02:30N 49°18' W 123°08'0 0.0
2018-Jul-19 02:00N 49°18' W 123°08'0 0.0
2018-Jul-19 01:30N 49°18' W 123°08'0 0.0
2018-Jul-19 01:00N 49°18' W 123°08'0 0.0
2018-Jul-19 00:29N 49°18' W 123°08'0 0.0
2018-Jul-19 00:00N 49°18' W 123°08'0 0.0
2018-Jul-18 23:29N 49°18' W 123°08'0 0.0
2018-Jul-18 23:00N 49°18' W 123°08'1 2.6
2018-Jul-18 22:30N 49°18' W 123°06'1 2.0
2018-Jul-18 22:00N 49°18' W 123°06'1 1.8
2018-Jul-18 21:28N 49°18' W 123°08'2 4.5
2018-Jul-18 21:00N 49°18' W 123°05'2 4.3
2018-Jul-18 20:30N 49°18' W 123°08'1 2.3
2018-Jul-18 20:00N 49°18' W 123°07'1 1.7
2018-Jul-18 19:30N 49°17' W 123°06'1 1.7
2018-Jul-18 18:58N 49°18' W 123°08'2 4.5
2018-Jul-18 18:30N 49°18' W 123°05'2 4.4
2018-Jul-18 18:00N 49°18' W 123°08'0 0.0
2018-Jul-18 17:27N 49°18' W 123°08'0 0.0
2018-Jul-18 17:00N 49°18' W 123°08'0 0.0
2018-Jul-18 16:25N 49°18' W 123°08'0 0.0
2018-Jul-18 15:57N 49°18' W 123°08'0 0.0
2018-Jul-18 15:29N 49°18' W 123°08'0 0.0
2018-Jul-18 15:00N 49°18' W 123°08'0 0.0
2018-Jul-18 14:27N 49°18' W 123°08'0 0.0
2018-Jul-18 13:30N 49°18' W 123°08'0 0.0
2018-Jul-18 13:00N 49°18' W 123°08'0 0.0
2018-Jul-18 12:30N 49°18' W 123°08'0 0.0
2018-Jul-18 11:59N 49°18' W 123°08'0 0.0
2018-Jul-18 11:30N 49°18' W 123°08'0 0.0
2018-Jul-18 10:30N 49°18' W 123°08'0 0.0
2018-Jul-18 09:59N 49°18' W 123°08'0 0.0
2018-Jul-18 09:30N 49°18' W 123°08'0 0.0
2018-Jul-18 09:00N 49°18' W 123°08'0 0.0
2018-Jul-18 08:30N 49°18' W 123°08'0 0.0
2018-Jul-18 08:00N 49°18' W 123°08'0 0.0
2018-Jul-18 07:30N 49°18' W 123°08'0 0.0
2018-Jul-18 06:58N 49°18' W 123°08'0 0.0
2018-Jul-18 06:30N 49°18' W 123°08'0 0.0
2018-Jul-18 06:00N 49°18' W 123°08'0 0.0
2018-Jul-18 05:29N 49°18' W 123°08'0 0.0
2018-Jul-18 04:59N 49°18' W 123°08'0 0.0
2018-Jul-18 04:30N 49°18' W 123°08'0 0.0
2018-Jul-18 03:57N 49°18' W 123°08'0 0.0
2018-Jul-18 03:26N 49°18' W 123°08'0 0.0
2018-Jul-18 03:00N 49°18' W 123°08'0 0.0
2018-Jul-18 02:27N 49°18' W 123°08'0 0.0
2018-Jul-18 02:00N 49°18' W 123°08'0 0.0
2018-Jul-18 01:24N 49°18' W 123°08'0 0.0
2018-Jul-18 00:58N 49°18' W 123°08'0 0.0
2018-Jul-18 00:19N 49°18' W 123°08'0 0.0
2018-Jul-17 23:57N 49°18' W 123°08'0 0.0
2018-Jul-17 23:30N 49°18' W 123°08'0 0.0
2018-Jul-17 23:00N 49°18' W 123°08'2 3.4
2018-Jul-17 22:29N 49°19' W 123°06'2 3.2
2018-Jul-17 22:00N 49°17' W 123°07'0 0.3
2018-Jul-17 21:28N 49°18' W 123°07'1 3.0
2018-Jul-17 20:59N 49°18' W 123°05'2 3.9
2018-Jul-17 20:30N 49°18' W 123°08'2 3.2
2018-Jul-17 19:59N 49°19' W 123°06'1 2.7
2018-Jul-17 19:30N 49°17' W 123°07'1 1.0
2018-Jul-17 19:00N 49°18' W 123°08'2 3.5
2018-Jul-17 18:29N 49°18' W 123°05'2 4.2
2018-Jul-17 18:00N 49°18' W 123°08'0 0.0
2018-Jul-17 17:30N 49°18' W 123°08'0 0.0
2018-Jul-17 17:00N 49°18' W 123°08'0 0.0
2018-Jul-17 16:30N 49°18' W 123°08'0 0.0
2018-Jul-17 15:59N 49°18' W 123°08'0 0.0
2018-Jul-17 15:30N 49°18' W 123°08'0 0.0
2018-Jul-17 14:56N 49°18' W 123°08'0 0.0
2018-Jul-17 14:30N 49°18' W 123°08'0 0.0
2018-Jul-17 14:00N 49°18' W 123°08'0 0.0
2018-Jul-17 13:30N 49°18' W 123°08'0 0.0
2018-Jul-17 13:00N 49°18' W 123°08'0 0.0
2018-Jul-17 12:30N 49°18' W 123°08'0 0.0
2018-Jul-17 12:00N 49°18' W 123°08'0 0.0
2018-Jul-17 11:30N 49°18' W 123°08'0 0.0
2018-Jul-17 11:00N 49°18' W 123°08'0 0.0
2018-Jul-17 10:28N 49°18' W 123°08'0 0.0
2018-Jul-17 10:00N 49°18' W 123°08'0 0.0
2018-Jul-17 09:30N 49°18' W 123°08'0 0.0
2018-Jul-17 09:00N 49°18' W 123°08'0 0.0
2018-Jul-17 08:30N 49°18' W 123°08'0 0.0
2018-Jul-17 08:00N 49°18' W 123°08'0 0.0
2018-Jul-17 07:29N 49°18' W 123°08'0 0.0
2018-Jul-17 07:00N 49°18' W 123°08'0 0.0
2018-Jul-17 06:29N 49°18' W 123°08'0 0.0
2018-Jul-17 05:57N 49°18' W 123°08'0 0.0
2018-Jul-17 05:30N 49°18' W 123°08'0 0.0
2018-Jul-17 05:00N 49°18' W 123°08'0 0.7
2018-Jul-17 04:29N 49°18' W 123°08'0 0.8
2018-Jul-17 04:00N 49°18' W 123°07'1 1.7
2018-Jul-17 03:08N 49°17' W 123°08'1 5.2
2018-Jul-17 03:00N 49°16' W 123°07'2 3.4
2018-Jul-17 02:29N 49°17' W 123°09'1 2.9
2018-Jul-17 02:00N 49°19' W 123°08'1 1.7
2018-Jul-17 01:29N 49°18' W 123°08'0 0.0
2018-Jul-17 00:59N 49°18' W 123°08'0 0.0
2018-Jul-17 00:30N 49°18' W 123°08'0 0.0
2018-Jul-16 23:26N 49°18' W 123°08'0 0.0
2018-Jul-16 23:00N 49°18' W 123°08'2 3.3
2018-Jul-16 22:30N 49°19' W 123°06'1 2.7
2018-Jul-16 22:00N 49°17' W 123°07'0 0.4
2018-Jul-16 21:30N 49°18' W 123°07'1 2.8
2018-Jul-16 21:00N 49°18' W 123°05'2 3.8
2018-Jul-16 20:30N 49°18' W 123°08'2 3.6
2018-Jul-16 20:00N 49°19' W 123°06'1 2.8
2018-Jul-16 19:30N 49°17' W 123°07'0 0.5
2018-Jul-16 18:58N 49°18' W 123°07'2 3.7
2018-Jul-16 18:30N 49°18' W 123°05'2 4.2
2018-Jul-16 18:00N 49°18' W 123°08'0 0.0
2018-Jul-16 17:30N 49°18' W 123°08'0 0.0
2018-Jul-16 17:00N 49°18' W 123°08'0 0.0
2018-Jul-16 16:30N 49°18' W 123°08'0 0.0
2018-Jul-16 16:00N 49°18' W 123°08'0 0.0
2018-Jul-16 15:29N 49°18' W 123°08'0 0.0
2018-Jul-16 15:00N 49°18' W 123°08'0 0.0
2018-Jul-16 14:30N 49°18' W 123°08'0 0.0
2018-Jul-16 14:00N 49°18' W 123°08'0 0.0
2018-Jul-16 13:30N 49°18' W 123°08'0 0.0
2018-Jul-16 13:00N 49°18' W 123°08'0 0.0
2018-Jul-16 12:30N 49°18' W 123°08'0 0.0
2018-Jul-16 11:59N 49°18' W 123°08'0 0.0
2018-Jul-16 11:29N 49°18' W 123°08'0 0.0
2018-Jul-16 11:00N 49°18' W 123°08'0 0.0
2018-Jul-16 10:31N 49°18' W 123°08'0 0.0
2018-Jul-16 10:00N 49°18' W 123°08'0 0.0
2018-Jul-16 09:30N 49°18' W 123°08'0 0.0
2018-Jul-16 09:00N 49°18' W 123°08'0 0.0
2018-Jul-16 08:30N 49°18' W 123°08'0 0.0
2018-Jul-16 07:58N 49°18' W 123°08'0 0.0
2018-Jul-16 07:30N 49°18' W 123°08'0 0.0
2018-Jul-16 07:00N 49°18' W 123°08'0 0.0
2018-Jul-16 06:30N 49°18' W 123°08'0 0.0
2018-Jul-16 05:59N 49°18' W 123°08'0 0.0
2018-Jul-16 05:30N 49°18' W 123°08'0 0.0
2018-Jul-16 05:00N 49°18' W 123°08'0 0.0
2018-Jul-16 04:30N 49°18' W 123°08'0 0.0
2018-Jul-16 04:00N 49°18' W 123°08'0 0.1
2018-Jul-16 03:26N 49°18' W 123°08'0 0.2
2018-Jul-16 03:00N 49°18' W 123°08'0 0.0
2018-Jul-16 02:30N 49°18' W 123°08'0 0.0
2018-Jul-16 02:00N 49°18' W 123°08'0 0.4
2018-Jul-16 01:27N 49°18' W 123°08'0 0.9
2018-Jul-16 01:00N 49°18' W 123°07'0 0.8
2018-Jul-16 00:28N 49°18' W 123°08'0 0.3
2018-Jul-15 23:57N 49°18' W 123°08'0 0.0
2018-Jul-15 23:28N 49°18' W 123°08'0 0.0
2018-Jul-15 22:59N 49°18' W 123°08'2 3.3
2018-Jul-15 22:30N 49°19' W 123°06'1 2.5
2018-Jul-15 22:00N 49°17' W 123°07'0 0.8
2018-Jul-15 21:30N 49°18' W 123°07'2 3.3
2018-Jul-15 21:00N 49°18' W 123°05'2 3.9
2018-Jul-15 20:30N 49°18' W 123°08'1 2.4
2018-Jul-15 20:00N 49°18' W 123°06'1 1.7
2018-Jul-15 19:30N 49°17' W 123°06'1 1.3
2018-Jul-15 18:58N 49°18' W 123°07'2 4.1
2018-Jul-15 18:30N 49°18' W 123°05'2 4.4
2018-Jul-15 18:00N 49°18' W 123°08'0 0.0
2018-Jul-15 17:30N 49°18' W 123°08'0 0.0
2018-Jul-15 17:00N 49°18' W 123°08'0 0.0
2018-Jul-15 16:30N 49°18' W 123°08'0 0.0
2018-Jul-15 16:00N 49°18' W 123°08'0 0.0
2018-Jul-15 15:30N 49°18' W 123°08'0 0.0
2018-Jul-15 15:00N 49°18' W 123°08'0 0.0
2018-Jul-15 14:30N 49°18' W 123°08'0 0.0
2018-Jul-15 14:00N 49°18' W 123°08'0 0.0
2018-Jul-15 13:30N 49°18' W 123°08'0 0.0
2018-Jul-15 13:00N 49°18' W 123°08'0 0.0
2018-Jul-15 12:30N 49°18' W 123°08'0 0.0
2018-Jul-15 11:59N 49°18' W 123°08'0 0.0
2018-Jul-15 11:30N 49°18' W 123°08'0 0.0
2018-Jul-15 11:00N 49°18' W 123°08'0 0.0
2018-Jul-15 10:30N 49°18' W 123°08'0 0.0
2018-Jul-15 09:59N 49°18' W 123°08'0 0.0
2018-Jul-15 09:30N 49°18' W 123°08'0 0.0
2018-Jul-15 09:00N 49°18' W 123°08'0 0.0
2018-Jul-15 08:30N 49°18' W 123°08'0 0.0
2018-Jul-15 08:00N 49°18' W 123°08'0 0.0
2018-Jul-15 07:30N 49°18' W 123°08'0 0.0
2018-Jul-15 06:59N 49°18' W 123°08'0 0.0
2018-Jul-15 06:29N 49°18' W 123°08'0 0.0
2018-Jul-15 06:00N 49°18' W 123°08'0 0.0
2018-Jul-15 05:30N 49°18' W 123°08'0 0.0
2018-Jul-15 04:59N 49°18' W 123°08'0 0.0
2018-Jul-15 04:30N 49°18' W 123°08'1 1.3
2018-Jul-15 04:00N 49°18' W 123°07'1 2.7
2018-Jul-15 03:30N 49°17' W 123°05'1 2.1
2018-Jul-15 03:00N 49°18' W 123°05'2 4.5
2018-Jul-15 02:30N 49°19' W 123°08'1 2.2
2018-Jul-15 02:00N 49°18' W 123°08'0 0.0
2018-Jul-15 01:30N 49°18' W 123°08'0 0.0
2018-Jul-15 00:59N 49°18' W 123°08'0 0.0
2018-Jul-15 00:29N 49°18' W 123°08'0 0.0
2018-Jul-15 00:00N 49°18' W 123°08'0 0.0
2018-Jul-14 23:29N 49°18' W 123°08'0 0.4
2018-Jul-14 22:57N 49°18' W 123°08'2 3.9
2018-Jul-14 22:30N 49°19' W 123°05'2 3.7
2018-Jul-14 22:00N 49°18' W 123°08'0 0.5
2018-Jul-14 21:30N 49°18' W 123°08'2 3.9
2018-Jul-14 21:00N 49°18' W 123°05'2 4.2
2018-Jul-14 20:30N 49°18' W 123°08'1 2.6
2018-Jul-14 20:00N 49°18' W 123°06'1 2.1
2018-Jul-14 19:30N 49°18' W 123°07'0 0.3
2018-Jul-14 19:00N 49°18' W 123°07'2 3.2
2018-Jul-14 18:30N 49°18' W 123°05'2 3.9
2018-Jul-14 18:00N 49°18' W 123°08'0 0.0
2018-Jul-14 17:30N 49°18' W 123°08'0 0.0
2018-Jul-14 17:00N 49°18' W 123°08'0 0.0
2018-Jul-14 16:30N 49°18' W 123°08'0 0.0
2018-Jul-14 16:00N 49°18' W 123°08'0 0.0
2018-Jul-14 15:30N 49°18' W 123°08'0 0.0
2018-Jul-14 15:00N 49°18' W 123°08'0 0.0
2018-Jul-14 14:00N 49°18' W 123°08'0 0.0
2018-Jul-14 13:29N 49°18' W 123°08'0 0.0
2018-Jul-14 13:00N 49°18' W 123°08'0 0.0
2018-Jul-14 12:30N 49°18' W 123°08'0 0.0
2018-Jul-14 12:00N 49°18' W 123°08'0 0.0
2018-Jul-14 11:30N 49°18' W 123°08'0 0.0
2018-Jul-14 11:00N 49°18' W 123°08'0 0.0
2018-Jul-14 10:30N 49°18' W 123°08'0 0.0
2018-Jul-14 10:00N 49°18' W 123°08'0 0.0
2018-Jul-14 09:30N 49°18' W 123°08'0 0.0
2018-Jul-14 09:00N 49°18' W 123°08'0 0.0
2018-Jul-14 08:30N 49°18' W 123°08'0 0.0
2018-Jul-14 08:00N 49°18' W 123°08'0 0.0
2018-Jul-14 07:30N 49°18' W 123°08'0 0.0
2018-Jul-14 07:00N 49°18' W 123°08'0 0.0
2018-Jul-14 06:30N 49°18' W 123°08'0 0.0
2018-Jul-14 06:00N 49°18' W 123°08'0 0.0
2018-Jul-14 05:30N 49°18' W 123°08'0 0.0
2018-Jul-14 05:00N 49°18' W 123°08'0 0.0
2018-Jul-14 04:30N 49°18' W 123°08'0 0.0
2018-Jul-14 03:59N 49°18' W 123°08'0 0.0
2018-Jul-14 03:30N 49°18' W 123°08'0 0.5
2018-Jul-14 03:00N 49°18' W 123°08'3 5.0
2018-Jul-14 02:30N 49°18' W 123°04'2 4.6
2018-Jul-14 02:00N 49°18' W 123°00'1 1.4
2018-Jul-14 01:30N 49°18' W 123°01'0 0.2
2018-Jul-14 01:00N 49°18' W 123°01'0 0.1
2018-Jul-14 00:30N 49°18' W 123°01'2 4.0
2018-Jul-13 23:59N 49°18' W 122°58'3 5.3
2018-Jul-13 23:29N 49°18' W 123°02'3 7.0
2018-Jul-13 23:00N 49°18' W 123°07'1 1.1
2018-Jul-13 22:30N 49°18' W 123°08'0 0.0
2018-Jul-13 22:00N 49°18' W 123°08'0 0.0
2018-Jul-13 21:30N 49°18' W 123°08'0 0.0
2018-Jul-13 21:00N 49°18' W 123°08'0 0.0
2018-Jul-13 20:30N 49°18' W 123°08'0 0.0
2018-Jul-13 20:00N 49°18' W 123°08'0 0.0
2018-Jul-13 19:30N 49°18' W 123°08'0 0.0
2018-Jul-13 19:00N 49°18' W 123°08'0 0.0
2018-Jul-13 18:30N 49°18' W 123°08'0 0.0
2018-Jul-13 17:59N 49°18' W 123°08'0 0.0
2018-Jul-13 17:30N 49°18' W 123°08'0 0.0
2018-Jul-13 17:00N 49°18' W 123°08'0 0.0
2018-Jul-13 16:30N 49°18' W 123°08'0 0.0
2018-Jul-13 16:00N 49°18' W 123°08'0 0.0
2018-Jul-13 15:30N 49°18' W 123°08'0 0.0
2018-Jul-13 15:00N 49°18' W 123°08'0 0.0
2018-Jul-13 14:00N 49°18' W 123°08'0 0.0
2018-Jul-13 13:30N 49°18' W 123°08'0 0.0
2018-Jul-13 13:00N 49°18' W 123°08'0 0.0
2018-Jul-13 12:30N 49°18' W 123°08'0 0.0
2018-Jul-13 12:00N 49°18' W 123°08'0 0.0
2018-Jul-13 11:30N 49°18' W 123°08'0 0.0
2018-Jul-13 11:00N 49°18' W 123°08'0 0.0
2018-Jul-13 10:30N 49°18' W 123°08'0 0.0
2018-Jul-13 09:59N 49°18' W 123°08'0 0.0
2018-Jul-13 09:30N 49°18' W 123°08'0 0.0
2018-Jul-13 09:00N 49°18' W 123°08'0 0.0
2018-Jul-13 08:30N 49°18' W 123°08'0 0.0
2018-Jul-13 08:00N 49°18' W 123°08'0 0.0
2018-Jul-13 07:30N 49°18' W 123°08'0 0.0
2018-Jul-13 07:00N 49°18' W 123°08'0 0.0
2018-Jul-13 06:30N 49°18' W 123°08'0 0.0
2018-Jul-13 06:00N 49°18' W 123°08'0 0.0
2018-Jul-13 05:30N 49°18' W 123°08'1 1.4
2018-Jul-13 05:00N 49°18' W 123°07'1 1.7
2018-Jul-13 04:30N 49°19' W 123°06'3 5.8
2018-Jul-13 04:00N 49°18' W 123°02'4 6.5
2018-Jul-13 03:27N 49°19' W 122°57'1 1.3
2018-Jul-13 03:00N 49°19' W 122°56'2 4.7
2018-Jul-13 02:29N 49°18' W 122°59'3 7.4
2018-Jul-13 02:00N 49°18' W 123°05'2 4.1
2018-Jul-13 01:30N 49°18' W 123°08'0 0.0
2018-Jul-13 01:00N 49°18' W 123°08'0 0.0
2018-Jul-13 00:30N 49°18' W 123°08'0 0.0
2018-Jul-12 23:57N 49°18' W 123°08'0 0.0
2018-Jul-12 23:30N 49°18' W 123°08'0 0.0
2018-Jul-12 22:58N 49°18' W 123°08'2 3.6
2018-Jul-12 22:30N 49°19' W 123°06'1 2.5
2018-Jul-12 22:00N 49°17' W 123°07'0 0.9
2018-Jul-12 21:30N 49°18' W 123°07'2 3.2
2018-Jul-12 21:00N 49°18' W 123°05'2 4.0
2018-Jul-12 20:30N 49°18' W 123°08'2 3.1
2018-Jul-12 20:00N 49°19' W 123°06'1 2.5
2018-Jul-12 19:30N 49°18' W 123°07'0 0.9
2018-Jul-12 19:00N 49°18' W 123°08'2 4.1
2018-Jul-12 18:30N 49°18' W 123°05'2 4.4
2018-Jul-12 18:00N 49°18' W 123°08'0 0.0
2018-Jul-12 17:29N 49°18' W 123°08'0 0.0
2018-Jul-12 17:00N 49°18' W 123°08'0 0.0
2018-Jul-12 16:30N 49°18' W 123°08'0 0.0
2018-Jul-12 16:00N 49°18' W 123°08'0 0.0
2018-Jul-12 15:30N 49°18' W 123°08'0 0.0
2018-Jul-12 15:00N 49°18' W 123°08'0 0.0
2018-Jul-12 14:30N 49°18' W 123°08'0 0.0
2018-Jul-12 14:00N 49°18' W 123°08'0 0.0
2018-Jul-12 13:30N 49°18' W 123°08'0 0.0
2018-Jul-12 13:00N 49°18' W 123°08'0 0.0
2018-Jul-12 12:30N 49°18' W 123°08'0 0.0
2018-Jul-12 12:00N 49°18' W 123°08'0 0.0
2018-Jul-12 11:29N 49°18' W 123°08'0 0.0
2018-Jul-12 11:00N 49°18' W 123°08'0 0.0
2018-Jul-12 10:30N 49°18' W 123°08'0 0.0
2018-Jul-12 10:00N 49°18' W 123°08'0 0.0
2018-Jul-12 09:30N 49°18' W 123°08'0 0.0
2018-Jul-12 09:00N 49°18' W 123°08'0 0.0
2018-Jul-12 08:30N 49°18' W 123°08'  

Dump ship's entire track history